createdAt,value
2018-06-22T00:02:15.131Z,18.20
2018-06-22T00:07:09.728Z,18.10
2018-06-22T00:12:04.334Z,18.10
2018-06-22T00:16:58.914Z,18.00
2018-06-22T00:21:53.842Z,17.60
2018-06-22T00:31:45.246Z,17.50
2018-06-22T00:36:39.823Z,17.20
2018-06-22T00:41:34.435Z,17.00
2018-06-22T00:46:29.068Z,16.80
2018-06-22T00:51:23.666Z,16.60
2018-06-22T00:56:18.262Z,16.60
2018-06-22T01:01:12.869Z,16.60
2018-06-22T01:06:07.773Z,16.50
2018-06-22T01:11:02.333Z,16.40
2018-06-22T01:15:56.936Z,16.20
2018-06-22T01:20:51.518Z,16.20
2018-06-22T01:25:46.183Z,16.20
2018-06-22T01:30:40.802Z,16.00
2018-06-22T01:35:35.438Z,15.90
2018-06-22T01:40:30.038Z,15.90
2018-06-22T01:45:24.630Z,15.90
2018-06-22T01:50:19.244Z,16.20
2018-06-22T01:55:13.886Z,15.90
2018-06-22T02:00:08.523Z,15.60
2018-06-22T02:05:03.132Z,15.60
2018-06-22T02:09:57.759Z,15.80
2018-06-22T02:14:54.156Z,15.50
2018-06-22T02:19:48.778Z,15.60
2018-06-22T02:24:43.398Z,15.60
2018-06-22T02:29:38.015Z,15.40
2018-06-22T02:34:32.612Z,15.50
2018-06-22T02:39:27.220Z,15.40
2018-06-22T02:44:21.830Z,15.30
2018-06-22T02:49:16.508Z,15.20
2018-06-22T02:54:11.115Z,15.20
2018-06-22T02:59:05.756Z,14.90
2018-06-22T03:08:54.705Z,14.80
2018-06-22T03:13:49.357Z,14.90
2018-06-22T03:18:44.182Z,14.80
2018-06-22T03:23:38.827Z,14.80
2018-06-22T03:28:33.414Z,15.00
2018-06-22T03:33:28.015Z,14.70
2018-06-22T03:38:22.631Z,14.60
2018-06-22T03:43:17.320Z,14.70
2018-06-22T03:48:11.906Z,14.50
2018-06-22T03:53:06.581Z,14.60
2018-06-22T03:58:01.303Z,14.60
2018-06-22T04:02:55.934Z,14.70
2018-06-22T04:07:50.505Z,14.70
2018-06-22T04:12:45.099Z,14.50
2018-06-22T04:17:48.562Z,14.70
2018-06-22T04:22:43.242Z,14.70
2018-06-22T04:27:37.834Z,14.50
2018-06-22T04:32:32.451Z,14.80
2018-06-22T04:37:27.022Z,14.90
2018-06-22T04:42:21.616Z,14.80
2018-06-22T04:47:16.251Z,14.90
2018-06-22T04:52:10.864Z,14.70
2018-06-22T04:57:05.500Z,14.90
2018-06-22T05:02:00.183Z,15.30
2018-06-22T05:06:54.854Z,15.40
2018-06-22T05:11:49.468Z,15.70
2018-06-22T05:16:44.103Z,15.80
2018-06-22T05:21:38.826Z,15.70
2018-06-22T05:26:33.538Z,15.90
2018-06-22T05:31:28.156Z,15.70
2018-06-22T05:36:22.827Z,15.80
2018-06-22T05:41:17.560Z,15.80
2018-06-22T05:46:12.231Z,15.60
2018-06-22T05:51:06.992Z,15.70
2018-06-22T05:56:01.578Z,15.90
2018-06-22T06:00:56.266Z,15.80
2018-06-22T06:05:51.008Z,15.30
2018-06-22T06:10:45.689Z,15.10
2018-06-22T06:15:40.359Z,15.20
2018-06-22T06:20:35.125Z,15.30
2018-06-22T06:25:29.778Z,15.10
2018-06-22T06:30:24.436Z,15.10
2018-06-22T06:35:19.140Z,15.30
2018-06-22T06:40:13.787Z,15.60
2018-06-22T06:45:08.446Z,15.70
2018-06-22T06:54:57.475Z,16.50
2018-06-22T06:59:52.189Z,16.70
2018-06-22T07:04:46.895Z,17.20
2018-06-22T07:09:41.755Z,17.20
2018-06-22T07:14:36.507Z,17.00
2018-06-22T07:19:31.168Z,17.70
2018-06-22T07:24:25.894Z,18.10
2018-06-22T07:29:20.487Z,18.50
2018-06-22T07:34:15.130Z,18.40
2018-06-22T07:44:06.325Z,18.40
2018-06-22T07:49:01.117Z,18.50
2018-06-22T07:58:50.041Z,18.70
2018-06-22T08:03:44.682Z,18.80
2018-06-22T08:08:39.309Z,18.70
2018-06-22T08:13:33.883Z,18.70
2018-06-22T08:18:28.490Z,18.80
2018-06-22T08:23:23.120Z,18.90
2018-06-22T08:28:17.784Z,19.40
2018-06-22T08:33:12.443Z,19.30
2018-06-22T08:38:07.296Z,19.80
2018-06-22T08:43:01.931Z,19.60
2018-06-22T08:47:59.479Z,19.40
2018-06-22T08:52:54.111Z,19.70
2018-06-22T08:57:48.798Z,19.90
2018-06-22T09:07:37.697Z,19.50
2018-06-22T09:17:26.658Z,19.50
2018-06-22T09:22:21.278Z,19.40
2018-06-22T09:27:15.888Z,19.60
2018-06-22T09:32:10.579Z,19.70
2018-06-22T09:37:05.279Z,19.90
2018-06-22T09:41:59.928Z,19.90
2018-06-22T09:46:54.943Z,19.90
2018-06-22T09:51:49.583Z,19.90
2018-06-22T09:56:44.259Z,20.10
2018-06-22T10:01:38.936Z,20.20
2018-06-22T10:06:33.555Z,20.50
2018-06-22T10:11:28.251Z,20.80
2018-06-22T10:16:22.934Z,20.80
2018-06-22T10:21:17.530Z,20.40
2018-06-22T10:26:12.187Z,20.70
2018-06-22T10:31:06.741Z,20.80
2018-06-22T10:36:02.219Z,21.30
2018-06-22T10:40:56.967Z,21.40
2018-06-22T10:45:51.662Z,21.60
2018-06-22T10:50:46.322Z,21.50
2018-06-22T10:55:40.997Z,21.40
2018-06-22T11:00:35.679Z,21.60
2018-06-22T11:05:30.343Z,21.70
2018-06-22T11:10:24.990Z,21.40
2018-06-22T11:15:19.651Z,21.70
2018-06-22T11:25:09.142Z,22.00
2018-06-22T11:30:03.907Z,22.50
2018-06-22T11:34:59.262Z,22.70
2018-06-22T11:39:54.178Z,22.90
2018-06-22T11:44:48.866Z,24.00
2018-06-22T11:49:43.498Z,23.90
2018-06-22T11:54:38.198Z,23.80
2018-06-22T11:59:32.796Z,23.60
2018-06-22T12:04:27.480Z,23.10
2018-06-22T12:09:22.137Z,23.10
2018-06-22T12:14:16.805Z,22.70
2018-06-22T12:19:11.514Z,22.20
2018-06-22T12:24:06.142Z,22.20
2018-06-22T12:29:01.270Z,22.40
2018-06-22T12:33:55.963Z,22.20
2018-06-22T12:38:50.622Z,22.10
2018-06-22T12:43:45.363Z,22.10
2018-06-22T12:48:40.046Z,22.10
2018-06-22T12:53:34.701Z,21.70
2018-06-22T12:58:29.351Z,21.40
2018-06-22T13:03:24.028Z,21.60
2018-06-22T13:08:18.699Z,21.80
2018-06-22T13:18:07.642Z,22.20
2018-06-22T13:23:02.318Z,22.50
2018-06-22T13:32:51.334Z,21.80
2018-06-22T13:37:45.971Z,21.30
2018-06-22T13:42:40.630Z,21.00
2018-06-22T13:47:35.265Z,20.70
2018-06-22T13:52:29.949Z,20.40
2018-06-22T14:02:18.965Z,20.50
2018-06-22T14:07:13.603Z,20.70
2018-06-22T14:12:08.310Z,20.80
2018-06-22T14:17:02.942Z,20.80
2018-06-22T14:21:57.527Z,20.90
2018-06-22T14:26:52.152Z,20.60
2018-06-22T14:31:46.787Z,20.20
2018-06-22T14:36:41.487Z,20.30
2018-06-22T14:41:36.170Z,20.40
2018-06-22T14:46:30.908Z,20.50
2018-06-22T14:51:25.568Z,20.70
2018-06-22T14:56:25.310Z,20.80
2018-06-22T15:01:24.968Z,20.70
2018-06-22T15:06:24.778Z,20.70
2018-06-22T15:11:19.465Z,21.40
2018-06-22T15:16:14.076Z,21.90
2018-06-22T15:21:08.738Z,21.80
2018-06-22T15:26:04.506Z,21.50
2018-06-22T15:35:58.508Z,21.20
2018-06-22T15:40:58.351Z,21.00
2018-06-22T15:45:58.110Z,20.70
2018-06-22T15:50:57.987Z,20.30
2018-06-22T15:55:56.731Z,20.40
2018-06-22T16:00:51.470Z,20.50
2018-06-22T16:05:46.054Z,20.50
2018-06-22T16:10:40.775Z,20.60
2018-06-22T16:15:40.437Z,20.80
2018-06-22T16:20:40.112Z,21.00
2018-06-22T16:25:39.702Z,21.10
2018-06-22T16:30:34.408Z,20.80
2018-06-22T16:35:29.193Z,20.90
2018-06-22T16:40:23.987Z,21.00
2018-06-22T16:45:18.723Z,20.80
2018-06-22T16:50:13.000Z,20.70
2018-06-22T16:55:07.706Z,20.90
2018-06-22T17:00:02.411Z,21.10
2018-06-22T17:04:57.079Z,21.00
2018-06-22T17:09:56.709Z,20.90
2018-06-22T17:14:56.681Z,20.50
2018-06-22T17:19:51.302Z,20.20
2018-06-22T17:24:45.938Z,19.90
2018-06-22T17:29:40.639Z,19.80
2018-06-22T17:34:35.371Z,19.70
2018-06-22T17:39:29.944Z,19.70
2018-06-22T17:44:24.605Z,19.50
2018-06-22T17:49:19.254Z,19.30
2018-06-22T17:54:13.919Z,19.20
2018-06-22T17:59:13.809Z,19.00
2018-06-22T18:04:13.643Z,18.80
2018-06-22T18:09:10.161Z,18.70
2018-06-22T18:14:05.051Z,18.70
2018-06-22T18:18:59.666Z,18.60
2018-06-22T18:23:54.356Z,18.40
2018-06-22T18:28:49.284Z,18.30
2018-06-22T18:33:43.944Z,18.30
2018-06-22T18:38:38.639Z,18.20
2018-06-22T18:43:38.323Z,18.20
2018-06-22T18:48:33.054Z,18.20
2018-06-22T18:53:32.762Z,18.00
2018-06-22T18:58:32.517Z,18.00
2018-06-22T19:03:32.268Z,17.90
2018-06-22T19:08:27.025Z,18.00
2018-06-22T19:13:21.682Z,18.00
2018-06-22T19:18:16.381Z,18.00
2018-06-22T19:23:11.055Z,18.10
2018-06-22T19:28:05.998Z,18.00
2018-06-22T19:33:00.652Z,17.90
2018-06-22T19:37:55.422Z,17.90
2018-06-22T19:42:50.196Z,17.70
2018-06-22T19:47:50.044Z,17.60
2018-06-22T19:52:49.823Z,17.50
2018-06-22T19:57:44.515Z,17.50
2018-06-22T20:02:39.117Z,17.40
2018-06-22T20:07:33.823Z,17.40
2018-06-22T20:12:28.527Z,17.40
2018-06-22T20:17:23.237Z,17.30
2018-06-22T20:22:18.596Z,17.20
2018-06-22T20:27:13.635Z,17.20
2018-06-22T20:32:09.734Z,17.30
2018-06-22T20:39:13.919Z,17.20
2018-06-22T20:46:19.928Z,17.10
2018-06-22T20:51:14.668Z,16.90
2018-06-22T20:56:09.346Z,16.70
2018-06-22T21:01:05.363Z,16.60
2018-06-22T21:06:00.088Z,16.60
2018-06-22T21:10:54.819Z,16.60
2018-06-22T21:15:49.498Z,16.60
2018-06-22T21:20:49.296Z,16.50
2018-06-22T21:25:43.976Z,16.40
2018-06-22T21:30:43.806Z,16.20
2018-06-22T21:35:43.531Z,16.20
2018-06-22T21:40:38.184Z,16.30
2018-06-22T21:45:32.961Z,16.30
2018-06-22T21:50:27.671Z,16.40
2018-06-22T21:55:22.275Z,16.20
2018-06-22T22:00:27.142Z,16.30
2018-06-22T22:05:21.795Z,16.20
2018-06-22T22:10:19.410Z,16.40
2018-06-22T22:15:14.031Z,16.30
2018-06-22T22:20:08.760Z,16.20
2018-06-22T22:25:03.377Z,16.00
2018-06-22T22:29:58.090Z,16.00
2018-06-22T22:34:52.901Z,16.10
2018-06-22T22:39:47.583Z,16.20
2018-06-22T22:44:42.277Z,16.00
2018-06-22T22:49:36.926Z,16.10
2018-06-22T22:54:31.742Z,16.10
2018-06-22T22:59:26.399Z,16.00
2018-06-22T23:04:21.066Z,16.10
2018-06-22T23:09:15.765Z,16.00
2018-06-22T23:14:10.502Z,15.90
2018-06-22T23:19:05.179Z,15.90
2018-06-22T23:28:54.099Z,15.60
2018-06-22T23:33:48.726Z,15.60
2018-06-22T23:38:43.354Z,15.60
2018-06-22T23:43:38.084Z,15.70
2018-06-22T23:48:32.714Z,15.70
2018-06-22T23:53:27.385Z,15.60
